Flight Track Log - Related Links

Times and Time Zones

All times are in EDT time to prevent confusion due to time zone crossing. See the N700YN flight status page for this flight to view local times or setup timezone preferences in your user account.

Time Position Orientation Groundspeed Altitude Reporting Facility
EDT Latitude Longitude Course Direction KTS MPH feet Rate Location/Type
Wed 06:48:34 PM 40.1500 -75.2500 37° Northeast 112 129 800  Level Philadelphia TRACON
Wed 06:49:04 PM 40.1667 -75.2333 37° Northeast 130 150 1,500 1,533 Climbing Philadelphia TRACON
Wed 06:50:04 PM 40.1833 -75.2167 37° Northeast 159 183 3,100 1,591 Climbing Philadelphia TRACON
Wed 06:51:16 PM 40.2022 -75.2850 290° West 163 188 5,000 1,478 Climbing New York Center
Wed 06:52:18 PM 40.2022 -75.3367 270° West 163 188 6,400 1,450 Climbing New York Center
Wed 06:53:16 PM 40.2042 -75.3964 272° West 163 188 7,900 1,400 Climbing New York Center
Wed 06:54:18 PM 40.2128 -75.4458 283° West 161 185 9,200 1,328 Climbing New York Center
Wed 06:55:18 PM 40.2186 -75.5033 278° West 161 185 10,600 1,361 Climbing New York Center
Wed 06:56:17 PM 40.2267 -75.5667 279° West 161 185 11,900 712 Climbing New York Center
Wed 06:57:16 PM 40.2619 -75.6206 311° West 174 200 12,000 50 Climbing New York Center
Wed 06:58:16 PM 40.3011 -75.6778 312° West 205 236 12,000 -50 Level New York Center
Wed 06:59:16 PM 40.3406 -75.7350 312° West 225 259 11,900 -100 Descending New York Center
Wed 07:00:16 PM 40.3817 -75.7981 311° West 225 259 11,800 694 Descending New York Center
Wed 07:01:17 PM 40.4228 -75.8611 311° West 213 245 13,300 1,268 Climbing New York Center
Wed 07:02:19 PM 40.4450 -75.9225 295° West 195 224 14,400 1,100 Climbing New York Center
Wed 07:03:17 PM 40.4550 -75.9806 283° West 189 217 15,500 807 Climbing New York Center
Wed 07:04:18 PM 40.4664 -76.0497 282° West 184 212 16,000 250 Climbing New York Center
Wed 07:05:17 PM 40.4811 -76.1408 282° West 214 246 16,000 150 Level New York Center
Wed 07:06:18 PM 40.4939 -76.2267 281° West 236 272 16,300 454 Climbing New York Center
Wed 07:07:16 PM 40.5053 -76.2958 282° West 236 272 16,900 305 Climbing New York Center
Wed 07:08:16 PM 40.5178 -76.3814 281° West 236 272 16,900 500 Level New York Center
Wed 07:09:16 PM 40.5325 -76.4700 282° West 241 277 17,900 885 Climbing New York Center
Wed 07:10:18 PM 40.5433 -76.5447 281° West 222 255 18,700 850 Climbing New York Center
Wed 07:11:16 PM 40.5561 -76.6222 282° West 222 255 19,600 661 Climbing New York Center
Wed 07:12:16 PM 40.5775 -76.6978 290° West 222 255 20,000 198 Climbing New York Center
Wed 07:13:17 PM 40.6006 -76.7792 290° West 233 268 20,000  Level New York Center
Wed 07:14:17 PM 40.6231 -76.8658 289° West 244 281 20,000  Level New York Center
Wed 07:15:17 PM 40.6458 -76.9528 289° West 250 288 20,000  Level New York Center
Wed 07:16:18 PM 40.6703 -77.0425 290° West 255 293 20,000  Level New York Center
Wed 07:17:19 PM 40.6925 -77.1294 289° West 255 293 20,000  Level New York Center
Wed 07:18:16 PM 40.7150 -77.2164 289° West 255 293 20,000  Level New York Center
Wed 07:19:17 PM 40.7392 -77.3064 290° West 255 293 20,000  Level New York Center
Wed 07:20:19 PM 40.7625 -77.3953 289° West 256 295 20,000  Level Cleveland Center
Wed 07:21:21 PM 40.7850 -77.4844 288° West 257 296 20,000  Level Cleveland Center
Wed 07:22:23 PM 40.8114 -77.5886 289° West 263 303 20,000 48 Level Cleveland Center
Wed 07:23:25 PM 40.8294 -77.6650 287° West 259 298 20,100  Climbing Cleveland Center
Wed 07:24:27 PM 40.8594 -77.7711 291° West 259 298 20,000 -48 Descending Cleveland Center
Wed 07:25:29 PM 40.8822 -77.8606 289° West 259 298 20,000 -48 Level Cleveland Center
Wed 07:26:31 PM 40.9044 -77.9500 288° West 258 297 19,900 -48 Descending Cleveland Center
Wed 07:27:33 PM 40.9156 -78.0431 279° West 263 303 19,900 48 Level Cleveland Center
Wed 07:28:35 PM 40.9189 -78.1389 273° West 263 303 20,000 48 Climbing Cleveland Center
Wed 07:29:37 PM 40.9225 -78.2414 273° West 263 303 20,000 -48 Level Cleveland Center
Wed 07:30:39 PM 40.9242 -78.3292 271° West 245 282 19,900  Descending Cleveland Center
Wed 07:31:41 PM 40.9267 -78.4153 272° West 239 275 20,000  Climbing Cleveland Center
Wed 07:32:43 PM 40.9283 -78.5186 271° West 237 273 19,900  Descending Cleveland Center
Wed 07:33:45 PM 40.9311 -78.6094 272° West 245 282 20,000  Climbing Cleveland Center
Wed 07:34:47 PM 40.9333 -78.7031 272° West 251 289 19,900 -387 Descending Cleveland Center
Wed 07:35:49 PM 40.9358 -78.7950 272° West 252 290 19,200 -732 Descending Cleveland Center
Wed 07:36:50 PM 40.9378 -78.8878 272° West 252 290 18,400 -732 Descending Cleveland Center
Wed 07:37:52 PM 40.9403 -78.9853 272° West 265 305 17,700 -726 Descending Cleveland Center
Wed 07:38:54 PM 40.9425 -79.1014 271° West 265 305 16,900 -871 Descending Cleveland Center
Wed 07:39:56 PM 40.9433 -79.1989 271° West 265 305 15,900 -968 Descending Cleveland Center
Wed 07:40:58 PM 40.9453 -79.2989 272° West 269 310 14,900 -968 Descending Cleveland Center
Wed 07:42:00 PM 40.9461 -79.3972 271° West 268 308 13,900 -1,016 Descending Cleveland Center
Wed 07:43:02 PM 40.9481 -79.4903 272° West 258 297 12,800 -1,065 Descending Cleveland Center
Wed 07:44:04 PM 40.9489 -79.5792 271° West 246 283 11,700 -1,161 Descending Cleveland Center
Wed 07:45:06 PM 40.9506 -79.6853 271° West 243 280 10,400 -1,210 Descending Cleveland Center
Wed 07:46:08 PM 40.9514 -79.7683 271° West 231 266 9,200 -1,065 Descending Cleveland Center
Wed 07:47:10 PM 40.9525 -79.8522 271° West 228 262 8,200 -532 Descending Cleveland Center
Wed 07:48:12 PM 40.9542 -79.9292 272° West 208 239 8,100 -339 Descending Cleveland Center
Wed 07:49:14 PM 40.9553 -79.9994 271° West 194 223 7,500 -726 Descending Cleveland Center
Wed 07:50:16 PM 40.9558 -80.0733 271° West 198 228 6,600 -968 Descending Cleveland Center
Wed 07:51:18 PM 40.9575 -80.1642 271° West 206 237 5,500 -968 Descending Cleveland Center
Wed 07:52:20 PM 40.9578 -80.2408 270° West 209 241 4,600 -823 Descending Cleveland Center
Wed 07:53:22 PM 40.9586 -80.3167 271° West 209 241 3,800 -726 Descending Cleveland Center
Wed 07:54:24 PM 40.9575 -80.3906 269° West 205 236 3,100 -339 Descending Cleveland Center
Wed 07:55:26 PM 40.9597 -80.4531 273° West 175 201 3,100  Level Cleveland Center
Wed 07:56:28 PM 40.9633 -80.5272 274° West 169 194 3,100  Level Cleveland Center
Wed 07:58:00 PM 40.9500 -80.6515 270° West  Level FlightAware Approximate
Wed 08:05:00 PM 40.9500 -80.6667 270° West  Level FlightAware Approximate
Wed 08:06:00 PM 40.9618 -80.6773 270° West  Level Estimated

Login

Don't have an account? Register now (free) for customized features, flight alerts, and more!